Time,TemperatureF,DewpointF,PressureIn,WindDirection,WindDirectionDegrees,WindSpeedMPH,WindSpeedGustMPH,Humidity,HourlyPrecipIn,Conditions,Clouds,dailyrainin,SolarRadiationWatts/m^2,SoftwareType,DateUTC
2017-08-16 00:03:00,70.0,69.4,30.04,North,0,0.0,0.0,98,0.00,,,0.08,0.0,meteohub,2017-08-16 04:03:00,
2017-08-16 00:09:00,70.0,69.4,30.04,North,0,0.0,0.0,98,0.00,,,0.00,0.0,meteohub,2017-08-16 04:09:00,
2017-08-16 00:14:00,69.8,69.3,30.04,North,0,0.0,0.0,98,0.00,,,0.00,0.0,meteohub,2017-08-16 04:14:00,
2017-08-16 00:19:00,69.4,68.9,30.04,North,0,0.0,0.0,98,0.00,,,0.00,0.0,meteohub,2017-08-16 04:19:00,
2017-08-16 00:24:00,69.4,68.9,30.04,North,0,0.0,0.0,98,0.00,,,0.00,0.0,meteohub,2017-08-16 04:24:00,
2017-08-16 00:29:00,69.4,68.9,30.04,North,0,0.0,0.0,98,0.00,,,0.00,0.0,meteohub,2017-08-16 04:29:00,
2017-08-16 00:34:00,69.4,68.9,30.04,North,0,0.0,0.0,98,0.00,,,0.00,0.0,meteohub,2017-08-16 04:34:00,
2017-08-16 00:40:00,69.3,68.7,30.05,North,0,0.0,0.0,98,0.00,,,0.00,0.0,meteohub,2017-08-16 04:40:00,
2017-08-16 00:45:00,68.7,67.8,30.05,North,0,0.0,0.0,97,0.00,,,0.00,0.0,meteohub,2017-08-16 04:45:00,
2017-08-16 00:50:00,68.5,68.0,30.05,North,0,0.0,0.0,98,0.00,,,0.00,0.0,meteohub,2017-08-16 04:50:00,
2017-08-16 00:55:00,68.4,67.8,30.05,North,0,0.0,0.0,98,0.00,,,0.00,0.0,meteohub,2017-08-16 04:55:00,
2017-08-16 01:00:00,68.4,67.8,30.05,North,0,0.0,0.0,98,0.00,,,0.00,0.0,meteohub,2017-08-16 05:00:00,
2017-08-16 01:06:00,68.4,67.8,30.05,North,0,0.0,0.0,98,0.00,,,0.00,0.0,meteohub,2017-08-16 05:06:00,
2017-08-16 01:11:00,68.2,67.6,30.05,North,0,0.0,0.0,98,0.00,,,0.00,0.0,meteohub,2017-08-16 05:11:00,
2017-08-16 01:16:00,68.0,67.5,30.05,North,355,0.0,0.0,98,0.00,,,0.00,0.0,meteohub,2017-08-16 05:16:00,
2017-08-16 01:21:00,68.4,68.0,30.05,WNW,302,2.0,3.0,99,0.00,,,0.00,0.0,meteohub,2017-08-16 05:21:00,
2017-08-16 01:26:00,68.5,68.2,30.05,WNW,302,0.0,3.0,99,0.00,,,0.00,0.0,meteohub,2017-08-16 05:26:00,
2017-08-16 01:31:00,68.4,67.8,30.05,WNW,302,0.0,3.0,98,0.00,,,0.00,0.0,meteohub,2017-08-16 05:31:00,
2017-08-16 01:37:00,68.2,67.6,30.04,WNW,302,0.0,3.0,98,0.00,,,0.00,0.0,meteohub,2017-08-16 05:37:00,
2017-08-16 01:42:00,67.8,67.3,30.04,WNW,302,0.0,2.0,98,0.00,,,0.00,0.0,meteohub,2017-08-16 05:42:00,
2017-08-16 01:47:00,67.6,67.1,30.05,WNW,302,0.0,1.0,98,0.00,,,0.00,0.0,meteohub,2017-08-16 05:47:00,
2017-08-16 01:52:00,67.3,66.7,30.05,WNW,302,0.0,0.0,98,0.00,,,0.00,0.0,meteohub,2017-08-16 05:52:00,
2017-08-16 01:57:00,67.3,66.7,30.05,WNW,302,2.0,2.0,98,0.00,,,0.00,0.0,meteohub,2017-08-16 05:57:00,
2017-08-16 02:02:00,67.6,67.3,30.05,NW,306,3.0,4.0,99,0.00,,,0.00,0.0,meteohub,2017-08-16 06:02:00,
2017-08-16 02:07:00,67.8,67.5,30.04,NW,306,0.0,4.0,99,0.00,,,0.00,0.0,meteohub,2017-08-16 06:07:00,
2017-08-16 02:12:00,67.6,67.1,30.05,NW,306,0.0,4.0,98,0.00,,,0.00,0.0,meteohub,2017-08-16 06:12:00,
2017-08-16 02:17:00,67.5,66.9,30.05,NW,306,0.0,4.0,98,0.00,,,0.00,0.0,meteohub,2017-08-16 06:17:00,
2017-08-16 02:22:00,67.6,67.3,30.05,NW,306,0.0,1.0,99,0.00,,,0.00,0.0,meteohub,2017-08-16 06:22:00,
2017-08-16 02:27:00,68.2,67.8,30.04,NW,306,1.0,3.0,99,0.00,,,0.00,0.0,meteohub,2017-08-16 06:27:00,
2017-08-16 02:32:00,68.4,68.0,30.04,NW,306,2.0,3.0,99,0.00,,,0.00,0.0,meteohub,2017-08-16 06:32:00,
2017-08-16 02:37:00,68.7,68.4,30.04,WNW,296,3.0,4.0,99,0.00,,,0.00,0.0,meteohub,2017-08-16 06:37:00,
2017-08-16 02:42:00,68.7,68.4,30.04,WNW,285,3.0,5.0,99,0.00,,,0.00,0.0,meteohub,2017-08-16 06:42:00,
2017-08-16 02:47:00,68.7,68.4,30.04,WNW,285,1.0,5.0,99,0.00,,,0.00,0.0,meteohub,2017-08-16 06:47:00,
2017-08-16 02:52:00,67.8,67.3,30.04,WNW,285,0.0,4.0,98,0.00,,,0.00,0.0,meteohub,2017-08-16 06:52:00,
2017-08-16 02:57:00,67.6,67.1,30.05,WNW,285,1.0,4.0,98,0.00,,,0.00,0.0,meteohub,2017-08-16 06:57:00,
2017-08-16 03:02:00,67.3,66.7,30.05,WNW,285,0.0,3.0,98,0.00,,,0.00,0.0,meteohub,2017-08-16 07:02:00,
2017-08-16 03:07:00,67.3,66.7,30.05,WNW,285,0.0,2.0,98,0.00,,,0.00,0.0,meteohub,2017-08-16 07:07:00,
2017-08-16 03:12:00,66.9,66.4,30.05,WNW,285,0.0,1.0,98,0.00,,,0.00,0.0,meteohub,2017-08-16 07:12:00,
2017-08-16 03:17:00,66.7,66.2,30.05,WNW,285,0.0,0.0,98,0.00,,,0.00,0.0,meteohub,2017-08-16 07:17:00,
2017-08-16 03:22:00,66.7,66.4,30.05,WNW,285,0.0,2.0,99,0.00,,,0.00,0.0,meteohub,2017-08-16 07:22:00,
2017-08-16 03:27:00,66.7,66.4,30.05,WNW,285,0.0,2.0,99,0.00,,,0.00,0.0,meteohub,2017-08-16 07:27:00,
2017-08-16 03:32:00,66.2,65.7,30.05,WNW,285,0.0,2.0,98,0.00,,,0.00,0.0,meteohub,2017-08-16 07:32:00,
2017-08-16 03:37:00,65.8,65.3,30.06,WNW,285,0.0,1.0,98,0.00,,,0.00,0.0,meteohub,2017-08-16 07:37:00,
2017-08-16 03:42:00,65.8,65.3,30.06,WNW,285,0.0,1.0,98,0.00,,,0.00,0.0,meteohub,2017-08-16 07:42:00,
2017-08-16 03:47:00,66.0,65.7,30.06,WNW,285,0.0,0.0,99,0.00,,,0.00,0.0,meteohub,2017-08-16 07:47:00,
2017-08-16 03:52:00,66.0,65.7,30.06,WNW,285,0.0,0.0,99,0.00,,,0.00,0.0,meteohub,2017-08-16 07:52:00,
2017-08-16 03:57:00,65.8,65.5,30.06,WNW,285,0.0,3.0,99,0.00,,,0.00,0.0,meteohub,2017-08-16 07:57:00,
2017-08-16 04:02:00,65.7,65.3,30.06,WNW,285,0.0,3.0,99,0.00,,,0.00,0.0,meteohub,2017-08-16 08:02:00,
2017-08-16 04:07:00,65.7,65.3,30.06,WNW,285,0.0,3.0,99,0.00,,,0.00,0.0,meteohub,2017-08-16 08:07:00,
2017-08-16 04:12:00,65.8,65.5,30.06,WNW,285,0.0,2.0,99,0.00,,,0.00,0.0,meteohub,2017-08-16 08:12:00,
2017-08-16 04:17:00,66.0,65.7,30.06,WNW,285,0.0,2.0,99,0.00,,,0.00,0.0,meteohub,2017-08-16 08:17:00,
2017-08-16 04:22:00,66.4,66.0,30.06,WNW,285,0.0,2.0,99,0.00,,,0.00,0.0,meteohub,2017-08-16 08:22:00,
2017-08-16 04:27:00,66.4,66.0,30.06,WNW,285,0.0,2.0,99,0.00,,,0.00,0.0,meteohub,2017-08-16 08:27:00,
2017-08-16 04:32:00,66.6,66.2,30.06,WNW,285,0.0,2.0,99,0.00,,,0.00,0.0,meteohub,2017-08-16 08:32:00,
2017-08-16 04:37:00,67.3,66.9,30.06,WNW,285,0.0,2.0,99,0.00,,,0.00,0.0,meteohub,2017-08-16 08:37:00,
2017-08-16 04:42:00,67.6,67.6,30.06,WNW,285,0.0,2.0,100,0.00,,,0.00,0.0,meteohub,2017-08-16 08:42:00,
2017-08-16 04:47:00,67.8,67.5,30.06,WNW,285,0.0,2.0,99,0.00,,,0.00,0.0,meteohub,2017-08-16 08:47:00,
2017-08-16 04:52:00,68.4,68.4,30.06,West,273,2.0,2.0,100,0.00,,,0.00,0.0,meteohub,2017-08-16 08:52:00,
2017-08-16 04:57:00,69.1,69.1,30.06,WSW,244,0.0,3.0,100,0.00,,,0.00,0.0,meteohub,2017-08-16 08:57:00,
2017-08-16 05:02:00,69.3,68.9,30.06,West,276,1.0,3.0,99,0.00,,,0.00,0.0,meteohub,2017-08-16 09:02:00,
2017-08-16 05:07:00,69.4,69.4,30.06,West,276,1.0,3.0,100,0.00,,,0.00,0.0,meteohub,2017-08-16 09:07:00,
2017-08-16 05:12:00,69.6,69.3,30.06,West,264,0.0,3.0,99,0.00,,,0.00,0.0,meteohub,2017-08-16 09:12:00,
2017-08-16 05:17:00,69.8,69.4,30.06,West,264,0.0,3.0,99,0.00,,,0.00,0.0,meteohub,2017-08-16 09:17:00,
2017-08-16 05:22:00,69.8,69.4,30.06,South,180,1.0,3.0,99,0.00,,,0.00,0.0,meteohub,2017-08-16 09:22:00,
2017-08-16 05:27:00,69.4,69.1,30.06,South,180,1.0,3.0,99,0.00,,,0.00,0.0,meteohub,2017-08-16 09:27:00,
2017-08-16 05:32:00,69.3,68.9,30.06,South,180,0.0,3.0,99,0.00,,,0.00,0.0,meteohub,2017-08-16 09:32:00,
2017-08-16 05:37:00,69.3,68.9,30.07,South,180,0.0,2.0,99,0.00,,,0.00,0.0,meteohub,2017-08-16 09:37:00,
2017-08-16 05:42:00,69.3,68.9,30.07,South,171,3.0,3.0,99,0.00,,,0.00,0.0,meteohub,2017-08-16 09:42:00,
2017-08-16 05:47:00,69.3,68.9,30.07,South,181,1.0,5.0,99,0.00,,,0.00,0.0,meteohub,2017-08-16 09:47:00,
2017-08-16 05:52:00,69.3,68.9,30.08,South,181,0.0,5.0,99,0.00,,,0.00,0.0,meteohub,2017-08-16 09:52:00,
2017-08-16 05:57:00,69.3,68.9,30.08,SW,218,0.0,5.0,99,0.00,,,0.00,0.0,meteohub,2017-08-16 09:57:00,
2017-08-16 06:02:00,69.3,68.9,30.08,SW,223,0.0,4.0,99,0.00,,,0.00,0.0,meteohub,2017-08-16 10:02:00,
2017-08-16 06:07:00,69.3,68.9,30.09,SW,223,0.0,4.0,99,0.00,,,0.00,0.0,meteohub,2017-08-16 10:07:00,
2017-08-16 06:12:00,69.3,68.9,30.09,West,277,1.0,4.0,99,0.00,,,0.00,0.0,meteohub,2017-08-16 10:12:00,
2017-08-16 06:17:00,69.3,68.9,30.09,WSW,255,0.0,5.0,99,0.00,,,0.00,0.0,meteohub,2017-08-16 10:17:00,
2017-08-16 06:22:00,69.1,68.7,30.09,WNW,300,0.0,5.0,99,0.00,,,0.00,0.0,meteohub,2017-08-16 10:22:00,
2017-08-16 06:27:00,69.3,68.9,30.09,South,175,2.0,3.0,99,0.00,,,0.00,0.0,meteohub,2017-08-16 10:27:00,
2017-08-16 06:32:00,69.1,68.7,30.09,South,175,1.0,4.0,99,0.00,,,0.00,0.0,meteohub,2017-08-16 10:32:00,
2017-08-16 06:37:00,69.1,68.7,30.09,South,184,0.0,4.0,99,0.00,,,0.00,5.0,meteohub,2017-08-16 10:37:00,
2017-08-16 06:42:00,69.3,68.9,30.09,West,267,1.0,5.0,99,0.00,,,0.00,9.0,meteohub,2017-08-16 10:42:00,
2017-08-16 06:47:00,69.3,68.9,30.09,West,267,0.0,5.0,99,0.00,,,0.00,12.0,meteohub,2017-08-16 10:47:00,
2017-08-16 06:52:00,69.1,68.7,30.09,West,267,2.0,5.0,99,0.00,,,0.00,11.0,meteohub,2017-08-16 10:52:00,
2017-08-16 06:57:00,68.5,68.2,30.09,South,184,0.0,3.0,99,0.00,,,0.00,12.0,meteohub,2017-08-16 10:57:00,
2017-08-16 07:00:00,68.5,68.2,30.09,South,184,0.0,3.0,99,0.00,,,0.00,14.0,meteohub,2017-08-16 11:00:00,
2017-08-16 07:06:00,68.4,68.0,30.10,WSW,246,3.0,3.0,99,0.00,,,0.00,18.0,meteohub,2017-08-16 11:06:00,
2017-08-16 07:11:00,68.4,68.0,30.10,South,175,3.0,3.0,99,0.00,,,0.00,23.0,meteohub,2017-08-16 11:11:00,
2017-08-16 07:16:00,68.4,68.0,30.10,WSW,237,3.0,4.0,99,0.00,,,0.00,37.0,meteohub,2017-08-16 11:16:00,
2017-08-16 07:21:00,68.5,68.2,30.11,WSW,244,1.0,4.0,99,0.00,,,0.00,56.0,meteohub,2017-08-16 11:21:00,
2017-08-16 07:26:00,68.7,68.4,30.11,WSW,244,0.0,4.0,99,0.00,,,0.00,83.0,meteohub,2017-08-16 11:26:00,
2017-08-16 07:31:00,68.9,68.9,30.10,WSW,244,0.0,4.0,100,0.00,,,0.00,90.0,meteohub,2017-08-16 11:31:00,
2017-08-16 07:37:00,69.1,68.7,30.10,WSW,238,2.0,3.0,99,0.00,,,0.00,114.0,meteohub,2017-08-16 11:37:00,
2017-08-16 07:42:00,68.9,68.5,30.10,SSW,210,2.0,3.0,99,0.00,,,0.00,69.0,meteohub,2017-08-16 11:42:00,
2017-08-16 07:47:00,68.9,68.5,30.10,SSW,210,2.0,3.0,99,0.00,,,0.00,69.0,meteohub,2017-08-16 11:47:00,
2017-08-16 07:52:00,69.1,68.7,30.11,SSW,210,2.0,3.0,99,0.00,,,0.00,91.0,meteohub,2017-08-16 11:52:00,
2017-08-16 07:57:00,69.3,68.9,30.11,SW,231,1.0,3.0,99,0.00,,,0.00,130.0,meteohub,2017-08-16 11:57:00,
2017-08-16 08:02:00,69.4,69.4,30.11,SW,231,0.0,3.0,100,0.00,,,0.00,178.0,meteohub,2017-08-16 12:02:00,
2017-08-16 08:07:00,70.0,69.6,30.11,SSW,207,3.0,3.0,99,0.00,,,0.00,183.0,meteohub,2017-08-16 12:07:00,
2017-08-16 08:12:00,70.0,70.0,30.11,South,173,3.0,4.0,100,0.00,,,0.00,156.0,meteohub,2017-08-16 12:12:00,
2017-08-16 08:17:00,69.8,69.4,30.11,SSW,196,4.0,4.0,99,0.00,,,0.00,199.0,meteohub,2017-08-16 12:17:00,
2017-08-16 08:22:00,70.2,70.2,30.11,South,180,4.0,5.0,100,0.00,,,0.00,279.0,meteohub,2017-08-16 12:22:00,
2017-08-16 08:27:00,70.3,70.0,30.11,SW,233,2.0,5.0,99,0.00,,,0.00,288.0,meteohub,2017-08-16 12:27:00,
2017-08-16 08:32:00,70.3,70.0,30.11,SSW,192,4.0,5.0,99,0.00,,,0.00,211.0,meteohub,2017-08-16 12:32:00,
2017-08-16 08:37:00,70.3,70.0,30.12,SSW,193,4.0,5.0,99,0.00,,,0.00,193.0,meteohub,2017-08-16 12:37:00,
2017-08-16 08:42:00,70.3,70.0,30.12,SW,223,2.0,6.0,99,0.00,,,0.00,169.0,meteohub,2017-08-16 12:42:00,
2017-08-16 08:47:00,70.9,70.5,30.11,SSW,197,2.0,6.0,99,0.00,,,0.00,265.0,meteohub,2017-08-16 12:47:00,
2017-08-16 08:52:00,71.1,70.7,30.12,West,273,3.0,6.0,99,0.00,,,0.00,195.0,meteohub,2017-08-16 12:52:00,
2017-08-16 08:57:00,71.2,70.9,30.12,SW,225,3.0,6.0,99,0.00,,,0.00,190.0,meteohub,2017-08-16 12:57:00,
2017-08-16 09:02:00,71.4,71.1,30.12,South,182,3.0,6.0,99,0.00,,,0.00,241.0,meteohub,2017-08-16 13:02:00,
2017-08-16 09:07:00,71.8,71.4,30.12,South,188,3.0,5.0,99,0.00,,,0.00,181.0,meteohub,2017-08-16 13:07:00,
2017-08-16 09:12:00,72.0,71.6,30.12,South,182,4.0,5.0,99,0.00,,,0.00,283.0,meteohub,2017-08-16 13:12:00,
2017-08-16 09:17:00,72.1,71.8,30.11,South,173,2.0,5.0,99,0.00,,,0.00,371.0,meteohub,2017-08-16 13:17:00,
2017-08-16 09:22:00,72.7,72.3,30.11,South,172,2.0,5.0,99,0.00,,,0.00,380.0,meteohub,2017-08-16 13:22:00,
2017-08-16 09:27:00,73.0,72.5,30.11,South,179,5.0,5.0,98,0.00,,,0.00,373.0,meteohub,2017-08-16 13:27:00,
2017-08-16 09:32:00,73.2,72.7,30.11,South,175,3.0,5.0,98,0.00,,,0.00,274.0,meteohub,2017-08-16 13:32:00,
2017-08-16 09:37:00,73.2,72.3,30.11,South,182,4.0,5.0,97,0.00,,,0.00,248.0,meteohub,2017-08-16 13:37:00,
2017-08-16 09:42:00,73.6,72.3,30.11,SSW,200,5.0,7.0,96,0.00,,,0.00,301.0,meteohub,2017-08-16 13:42:00,
2017-08-16 09:47:00,73.8,72.5,30.11,South,184,5.0,7.0,96,0.00,,,0.00,436.0,meteohub,2017-08-16 13:47:00,
2017-08-16 09:52:00,74.1,72.7,30.11,SSW,192,7.0,7.0,95,0.00,,,0.00,369.0,meteohub,2017-08-16 13:52:00,
2017-08-16 09:57:00,74.5,72.7,30.11,SSW,196,6.0,7.0,94,0.00,,,0.00,478.0,meteohub,2017-08-16 13:57:00,
2017-08-16 10:02:00,74.7,72.9,30.11,SSW,197,6.0,9.0,94,0.00,,,0.00,429.0,meteohub,2017-08-16 14:02:00,
2017-08-16 10:07:00,75.2,73.0,30.11,SSW,197,2.0,9.0,93,0.00,,,0.00,424.0,meteohub,2017-08-16 14:07:00,
2017-08-16 10:12:00,75.7,73.2,30.11,South,178,4.0,8.0,92,0.00,,,0.00,689.0,meteohub,2017-08-16 14:12:00,
2017-08-16 10:17:00,76.1,73.2,30.11,SSE,162,2.0,7.0,91,0.00,,,0.00,603.0,meteohub,2017-08-16 14:17:00,
2017-08-16 10:22:00,76.6,73.8,30.11,South,182,4.0,7.0,91,0.00,,,0.00,670.0,meteohub,2017-08-16 14:22:00,
2017-08-16 10:27:00,76.8,72.7,30.11,SSE,159,5.0,7.0,87,0.00,,,0.00,320.0,meteohub,2017-08-16 14:27:00,
2017-08-16 10:32:00,77.0,73.2,30.11,South,182,3.0,7.0,88,0.00,,,0.00,570.0,meteohub,2017-08-16 14:32:00,
2017-08-16 10:37:00,77.2,72.7,30.11,SSW,199,5.0,7.0,86,0.00,,,0.00,281.0,meteohub,2017-08-16 14:37:00,
2017-08-16 10:42:00,77.4,73.2,30.11,SW,234,2.0,7.0,87,0.00,,,0.00,624.0,meteohub,2017-08-16 14:42:00,
2017-08-16 10:47:00,77.5,72.7,30.11,South,184,4.0,7.0,85,0.00,,,0.00,364.0,meteohub,2017-08-16 14:47:00,
2017-08-16 10:52:00,77.5,72.7,30.11,WSW,242,4.0,7.0,85,0.00,,,0.00,360.0,meteohub,2017-08-16 14:52:00,
2017-08-16 10:57:00,77.9,73.4,30.10,West,261,5.0,7.0,86,0.00,,,0.00,854.0,meteohub,2017-08-16 14:57:00,
2017-08-16 11:02:00,78.3,73.0,30.10,SW,217,0.0,5.0,84,0.00,,,0.00,691.0,meteohub,2017-08-16 15:02:00,
2017-08-16 11:07:00,78.6,73.4,30.10,South,184,5.0,5.0,84,0.00,,,0.00,404.0,meteohub,2017-08-16 15:07:00,
2017-08-16 11:12:00,79.0,73.8,30.10,SSE,161,2.0,7.0,84,0.00,,,0.00,538.0,meteohub,2017-08-16 15:12:00,
2017-08-16 11:17:00,79.3,72.7,30.10,SSW,209,4.0,7.0,80,0.00,,,0.00,729.0,meteohub,2017-08-16 15:17:00,
2017-08-16 11:22:00,79.5,72.9,30.10,SSW,211,2.0,7.0,80,0.00,,,0.00,621.0,meteohub,2017-08-16 15:22:00,
2017-08-16 11:27:00,79.9,72.9,30.10,SSE,167,2.0,7.0,79,0.00,,,0.00,473.0,meteohub,2017-08-16 15:27:00,
2017-08-16 11:32:00,80.1,72.5,30.10,SSE,149,2.0,7.0,78,0.00,,,0.00,891.0,meteohub,2017-08-16 15:32:00,
2017-08-16 11:37:00,80.8,72.1,30.10,ESE,107,3.0,7.0,75,0.00,,,0.00,635.0,meteohub,2017-08-16 15:37:00,
2017-08-16 11:42:00,81.3,74.1,30.10,South,174,1.0,5.0,79,0.00,,,0.00,870.0,meteohub,2017-08-16 15:42:00,
2017-08-16 11:47:00,82.0,73.8,30.10,South,173,4.0,5.0,76,0.00,,,0.00,853.0,meteohub,2017-08-16 15:47:00,
2017-08-16 11:52:00,82.0,72.9,30.09,West,277,2.0,5.0,74,0.00,,,0.00,844.0,meteohub,2017-08-16 15:52:00,
2017-08-16 11:57:00,82.2,72.3,30.09,West,265,4.0,5.0,72,0.00,,,0.00,874.0,meteohub,2017-08-16 15:57:00,